Airports Italy Olbia Costa Smeralda Airport

Olbia Costa Smeralda Airport (LIEO / OLB)

Facts about Olbia Costa Smeralda Airport

Name Olbia Costa Smeralda Airport
City Olbia
Country Italy
ICAO code LIEO
IATA code OLB
Elevation 11.2776 meters (37 feet)

Weather

METAR

Metar data retrieved Friday, 19 July 2024 at 23:25 UTC (10 minutes ago)

LIEO 192250Z 24017KT CAVOK 28/18 Q1013

Live traffic

Navigraph Charts (account required)